createdAt,value
2019-05-11T00:02:07.567Z,99.90
2019-05-11T00:04:36.590Z,99.90
2019-05-11T00:07:05.659Z,99.90
2019-05-11T00:09:34.728Z,99.90
2019-05-11T00:12:03.830Z,99.90
2019-05-11T00:14:32.947Z,99.90
2019-05-11T00:17:02.000Z,99.90
2019-05-11T00:19:31.156Z,99.90
2019-05-11T00:22:00.185Z,99.90
2019-05-11T00:24:29.858Z,99.90
2019-05-11T00:26:58.890Z,99.90
2019-05-11T00:29:28.029Z,99.90
2019-05-11T00:31:57.069Z,99.90
2019-05-11T00:34:26.170Z,99.90
2019-05-11T00:36:55.246Z,99.90
2019-05-11T00:39:24.156Z,99.90
2019-05-11T00:41:53.195Z,99.90
2019-05-11T00:44:22.167Z,99.90
2019-05-11T00:46:51.234Z,99.90
2019-05-11T00:49:20.277Z,99.90
2019-05-11T00:51:49.342Z,99.90
2019-05-11T00:54:18.427Z,99.90
2019-05-11T00:56:47.509Z,99.90
2019-05-11T00:59:21.723Z,99.90
2019-05-11T01:01:47.444Z,99.90
2019-05-11T01:04:16.489Z,99.90
2019-05-11T01:06:45.651Z,99.90
2019-05-11T01:09:14.714Z,99.90
2019-05-11T01:11:43.784Z,99.90
2019-05-11T01:14:12.808Z,99.90
2019-05-11T01:16:41.858Z,99.90
2019-05-11T01:19:10.842Z,99.90
2019-05-11T01:21:39.797Z,99.90
2019-05-11T01:24:08.875Z,99.90
2019-05-11T01:26:37.932Z,99.90
2019-05-11T01:29:07.005Z,99.90
2019-05-11T01:31:36.067Z,99.90
2019-05-11T01:34:24.239Z,99.90
2019-05-11T01:36:53.203Z,99.90
2019-05-11T01:39:22.255Z,99.90
2019-05-11T01:41:51.263Z,99.90
2019-05-11T01:44:20.295Z,99.90
2019-05-11T01:46:49.374Z,99.90
2019-05-11T01:49:18.445Z,99.90
2019-05-11T01:51:47.517Z,99.90
2019-05-11T01:54:16.543Z,99.90
2019-05-11T01:56:45.647Z,99.90
2019-05-11T01:59:14.627Z,99.90
2019-05-11T02:01:43.709Z,99.90
2019-05-11T02:04:12.821Z,99.90
2019-05-11T02:06:41.867Z,99.90
2019-05-11T02:09:10.959Z,99.90
2019-05-11T02:11:40.063Z,99.90
2019-05-11T02:14:09.159Z,99.90
2019-05-11T02:16:38.291Z,99.90
2019-05-11T02:19:07.290Z,99.90
2019-05-11T02:21:36.267Z,99.90
2019-05-11T02:24:05.398Z,99.90
2019-05-11T02:26:34.394Z,99.90
2019-05-11T02:29:03.453Z,99.90
2019-05-11T02:31:32.561Z,99.90
2019-05-11T02:34:01.556Z,99.90
2019-05-11T02:36:30.737Z,99.90
2019-05-11T02:38:59.853Z,99.90
2019-05-11T02:41:36.223Z,99.90
2019-05-11T02:43:59.952Z,99.90
2019-05-11T02:46:29.018Z,99.90
2019-05-11T02:48:58.084Z,99.90
2019-05-11T02:51:27.328Z,99.90
2019-05-11T02:53:56.749Z,99.90
2019-05-11T02:56:25.732Z,99.90
2019-05-11T02:58:54.784Z,99.90
2019-05-11T03:01:23.859Z,99.90
2019-05-11T03:03:52.897Z,99.90
2019-05-11T03:06:21.932Z,99.90
2019-05-11T03:08:51.077Z,99.90
2019-05-11T03:11:20.127Z,99.90
2019-05-11T03:13:49.234Z,99.90
2019-05-11T03:16:18.350Z,99.90
2019-05-11T03:18:47.496Z,99.90
2019-05-11T03:21:16.616Z,99.90
2019-05-11T03:23:45.727Z,99.90
2019-05-11T03:26:14.752Z,99.90
2019-05-11T03:28:43.745Z,99.90
2019-05-11T03:31:12.844Z,99.90
2019-05-11T03:33:41.857Z,99.90
2019-05-11T03:36:11.057Z,99.90
2019-05-11T03:38:40.071Z,99.90
2019-05-11T03:41:09.218Z,99.90
2019-05-11T03:43:38.218Z,99.90
2019-05-11T03:46:07.417Z,99.90
2019-05-11T03:48:36.453Z,99.90
2019-05-11T03:51:05.653Z,99.90
2019-05-11T03:53:34.789Z,99.90
2019-05-11T03:56:03.894Z,99.90
2019-05-11T03:58:33.001Z,99.90
2019-05-11T04:01:02.083Z,99.90
2019-05-11T04:03:31.121Z,99.90
2019-05-11T04:06:00.173Z,99.90
2019-05-11T04:08:29.208Z,99.90
2019-05-11T04:10:58.364Z,99.90
2019-05-11T04:13:27.376Z,99.90
2019-05-11T04:15:56.438Z,99.90
2019-05-11T04:18:25.501Z,99.90
2019-05-11T04:21:13.649Z,99.90
2019-05-11T04:23:43.064Z,99.90
2019-05-11T04:26:12.098Z,99.90
2019-05-11T04:28:41.157Z,99.90
2019-05-11T04:31:10.270Z,99.90
2019-05-11T04:33:39.179Z,99.90
2019-05-11T04:36:08.265Z,99.90
2019-05-11T04:38:37.329Z,99.90
2019-05-11T04:41:06.468Z,99.90
2019-05-11T04:43:35.493Z,99.90
2019-05-11T04:46:04.536Z,99.90
2019-05-11T04:48:33.532Z,99.90
2019-05-11T04:51:02.635Z,99.90
2019-05-11T04:53:31.736Z,99.90
2019-05-11T04:56:00.798Z,99.90
2019-05-11T04:58:29.878Z,99.90
2019-05-11T05:00:58.977Z,99.90
2019-05-11T05:03:40.499Z,99.90
2019-05-11T05:06:21.211Z,99.90
2019-05-11T05:08:29.618Z,99.90
2019-05-11T05:11:00.639Z,99.90
2019-05-11T05:13:31.447Z,99.90
2019-05-11T05:16:00.213Z,99.90
2019-05-11T05:18:29.224Z,99.90
2019-05-11T05:20:58.342Z,99.90
2019-05-11T05:23:27.296Z,99.90
2019-05-11T05:25:56.356Z,99.90
2019-05-11T05:28:25.435Z,99.90
2019-05-11T05:30:54.463Z,99.90
2019-05-11T05:33:26.679Z,99.90
2019-05-11T05:36:14.916Z,99.90
2019-05-11T05:38:43.885Z,99.90
2019-05-11T05:41:12.963Z,99.90
2019-05-11T05:43:42.047Z,99.90
2019-05-11T05:46:11.141Z,99.90
2019-05-11T05:48:40.107Z,99.90
2019-05-11T05:51:09.157Z,99.90
2019-05-11T05:53:38.155Z,99.90
2019-05-11T05:56:07.279Z,99.90
2019-05-11T05:58:36.359Z,99.90
2019-05-11T06:01:05.433Z,99.90
2019-05-11T06:03:34.473Z,99.90
2019-05-11T06:06:03.541Z,99.90
2019-05-11T06:08:32.649Z,99.90
2019-05-11T06:11:01.722Z,99.90
2019-05-11T06:13:44.783Z,99.90
2019-05-11T06:16:01.636Z,99.90
2019-05-11T06:18:30.791Z,99.90
2019-05-11T06:20:59.773Z,99.90
2019-05-11T06:23:47.972Z,99.90
2019-05-11T06:26:16.943Z,99.90
2019-05-11T06:28:46.055Z,99.90
2019-05-11T06:31:15.052Z,99.90
2019-05-11T06:33:44.028Z,99.90
2019-05-11T06:36:13.113Z,99.90
2019-05-11T06:38:42.992Z,99.90
2019-05-11T06:41:12.139Z,99.90
2019-05-11T06:43:41.206Z,99.90
2019-05-11T06:46:10.259Z,99.90
2019-05-11T06:48:39.355Z,99.90
2019-05-11T06:51:08.452Z,99.90
2019-05-11T06:53:37.472Z,99.90
2019-05-11T06:56:06.617Z,99.90
2019-05-11T06:58:35.732Z,99.90
2019-05-11T07:01:04.842Z,99.90
2019-05-11T07:03:33.909Z,99.90
2019-05-11T07:06:02.965Z,99.90
2019-05-11T07:08:31.988Z,99.90
2019-05-11T07:11:01.057Z,99.90
2019-05-11T07:13:49.233Z,99.90
2019-05-11T07:16:18.316Z,99.90
2019-05-11T07:18:47.559Z,99.90
2019-05-11T07:21:16.649Z,99.90
2019-05-11T07:23:45.795Z,99.90
2019-05-11T07:26:14.873Z,99.90
2019-05-11T07:28:43.871Z,99.90
2019-05-11T07:31:12.936Z,99.90
2019-05-11T07:33:41.973Z,99.90
2019-05-11T07:36:11.444Z,99.90
2019-05-11T07:38:40.490Z,99.90
2019-05-11T07:41:10.081Z,99.90
2019-05-11T07:43:39.153Z,99.90
2019-05-11T07:46:08.267Z,99.90
2019-05-11T07:48:38.760Z,99.90
2019-05-11T07:51:08.917Z,99.90
2019-05-11T07:53:38.278Z,99.90
2019-05-11T07:56:08.345Z,99.90
2019-05-11T07:58:38.762Z,99.90
2019-05-11T08:01:08.706Z,99.90
2019-05-11T08:03:38.846Z,99.90
2019-05-11T08:06:08.887Z,99.90
2019-05-11T08:08:38.556Z,99.90
2019-05-11T08:11:08.206Z,99.90
2019-05-11T08:13:38.881Z,99.90
2019-05-11T08:16:08.315Z,99.90
2019-05-11T08:18:38.749Z,99.90
2019-05-11T08:21:08.837Z,99.90
2019-05-11T08:23:38.032Z,99.90
2019-05-11T08:26:08.414Z,99.90
2019-05-11T08:28:38.194Z,99.90
2019-05-11T08:31:08.058Z,99.90
2019-05-11T08:33:38.930Z,99.90
2019-05-11T08:36:08.476Z,99.90
2019-05-11T08:38:37.920Z,99.90
2019-05-11T08:41:08.142Z,99.90
2019-05-11T08:43:38.848Z,99.90
2019-05-11T08:46:08.156Z,99.90
2019-05-11T08:48:38.834Z,99.90
2019-05-11T08:51:08.531Z,99.90
2019-05-11T08:53:38.722Z,99.90
2019-05-11T08:56:11.090Z,99.90
2019-05-11T08:58:38.604Z,99.90
2019-05-11T09:01:08.790Z,99.90
2019-05-11T09:03:38.768Z,99.90
2019-05-11T09:06:08.582Z,99.90
2019-05-11T09:08:38.785Z,99.90
2019-05-11T09:11:08.506Z,99.90
2019-05-11T09:13:39.399Z,99.90
2019-05-11T09:16:08.351Z,99.90
2019-05-11T09:18:38.565Z,99.90
2019-05-11T09:21:08.473Z,99.90
2019-05-11T09:23:40.692Z,99.90
2019-05-11T09:26:08.934Z,99.90
2019-05-11T09:28:38.556Z,99.90
2019-05-11T09:31:08.495Z,99.90
2019-05-11T09:33:38.595Z,99.90
2019-05-11T09:36:08.514Z,99.90
2019-05-11T09:38:38.455Z,99.90
2019-05-11T09:41:11.540Z,99.90
2019-05-11T09:43:38.440Z,99.90
2019-05-11T09:46:08.322Z,99.90
2019-05-11T09:48:37.995Z,99.90
2019-05-11T09:51:07.956Z,99.90
2019-05-11T09:53:38.821Z,99.90
2019-05-11T09:56:08.251Z,99.90
2019-05-11T09:58:38.633Z,99.90
2019-05-11T10:01:18.028Z,99.90
2019-05-11T10:04:05.385Z,99.90
2019-05-11T10:06:35.093Z,99.90
2019-05-11T10:09:07.988Z,99.90
2019-05-11T10:11:36.451Z,99.90
2019-05-11T10:14:05.513Z,99.90
2019-05-11T10:16:34.597Z,99.90
2019-05-11T10:19:03.665Z,99.90
2019-05-11T10:21:32.768Z,99.90
2019-05-11T10:24:01.827Z,99.90
2019-05-11T10:26:30.923Z,99.90
2019-05-11T10:28:59.935Z,99.90
2019-05-11T10:31:31.709Z,99.90
2019-05-11T10:34:00.688Z,99.90
2019-05-11T10:36:29.697Z,99.90
2019-05-11T10:38:58.969Z,99.90
2019-05-11T10:41:28.542Z,99.90
2019-05-11T10:43:58.156Z,99.90
2019-05-11T10:46:28.694Z,99.90
2019-05-11T10:49:18.453Z,99.90
2019-05-11T10:51:48.586Z,99.90
2019-05-11T10:54:18.744Z,99.90
2019-05-11T10:56:48.224Z,99.90
2019-05-11T10:59:18.750Z,99.90
2019-05-11T11:01:48.500Z,99.90
2019-05-11T11:04:18.399Z,99.90
2019-05-11T11:06:48.530Z,99.90
2019-05-11T11:09:17.952Z,99.90
2019-05-11T11:11:48.898Z,99.90
2019-05-11T11:14:18.247Z,99.90
2019-05-11T11:16:48.015Z,99.90
2019-05-11T11:19:18.348Z,99.90
2019-05-11T11:21:48.746Z,99.90
2019-05-11T11:24:18.229Z,98.90
2019-05-11T11:26:48.559Z,98.50
2019-05-11T11:29:18.139Z,99.70
2019-05-11T11:31:48.126Z,98.90
2019-05-11T11:34:18.776Z,99.90
2019-05-11T11:36:48.285Z,99.70
2019-05-11T11:39:18.750Z,99.90
2019-05-11T11:41:48.586Z,97.90
2019-05-11T11:44:18.517Z,95.10
2019-05-11T11:46:54.646Z,96.10
2019-05-11T11:49:19.117Z,95.70
2019-05-11T11:51:48.560Z,95.90
2019-05-11T11:54:18.342Z,95.50
2019-05-11T11:56:48.579Z,95.00
2019-05-11T11:59:18.018Z,95.50
2019-05-11T12:01:48.725Z,94.70
2019-05-11T12:04:18.823Z,95.80
2019-05-11T12:06:48.988Z,93.50
2019-05-11T12:09:18.399Z,94.50
2019-05-11T12:12:08.363Z,93.50
2019-05-11T12:14:59.473Z,94.30
2019-05-11T12:17:31.647Z,94.40
2019-05-11T12:20:00.730Z,93.10
2019-05-11T12:22:29.799Z,92.70
2019-05-11T12:24:59.061Z,93.60
2019-05-11T12:27:28.685Z,93.80
2019-05-11T12:29:58.291Z,92.50
2019-05-11T12:32:34.542Z,91.70
2019-05-11T12:35:03.709Z,91.10
2019-05-11T12:37:32.787Z,92.00
2019-05-11T12:40:01.864Z,91.60
2019-05-11T12:42:31.003Z,91.70
2019-05-11T12:45:19.191Z,90.70
2019-05-11T12:48:13.448Z,90.90
2019-05-11T12:50:45.648Z,88.50
2019-05-11T12:53:14.734Z,84.60
2019-05-11T12:55:43.844Z,86.50
2019-05-11T12:58:12.905Z,83.50
2019-05-11T13:00:42.025Z,86.40
2019-05-11T13:03:11.119Z,84.30
2019-05-11T13:05:40.167Z,82.50
2019-05-11T13:08:09.136Z,79.30
2019-05-11T13:10:38.163Z,81.40
2019-05-11T13:13:08.949Z,77.70
2019-05-11T13:15:38.723Z,78.00
2019-05-11T13:18:08.507Z,75.80
2019-05-11T13:20:38.010Z,74.40
2019-05-11T13:23:07.973Z,77.00
2019-05-11T13:25:38.779Z,73.40
2019-05-11T13:28:08.657Z,77.80
2019-05-11T13:30:38.271Z,73.40
2019-05-11T13:33:08.541Z,73.20
2019-05-11T13:35:37.825Z,71.50
2019-05-11T13:38:08.684Z,75.90
2019-05-11T13:40:38.373Z,80.00
2019-05-11T13:43:08.270Z,76.50
2019-05-11T13:45:38.702Z,77.60
2019-05-11T13:48:08.562Z,77.00
2019-05-11T13:50:38.638Z,75.10
2019-05-11T13:53:08.007Z,73.30
2019-05-11T13:55:38.729Z,74.70
2019-05-11T13:58:08.424Z,72.40
2019-05-11T14:00:38.021Z,71.20
2019-05-11T14:03:08.159Z,71.80
2019-05-11T14:05:37.890Z,74.00
2019-05-11T14:08:08.193Z,72.60
2019-05-11T14:10:38.394Z,72.10
2019-05-11T14:13:08.812Z,73.90
2019-05-11T14:15:38.059Z,72.80
2019-05-11T14:18:09.368Z,68.70
2019-05-11T14:20:38.079Z,69.10
2019-05-11T14:23:07.853Z,70.50
2019-05-11T14:25:38.133Z,66.40
2019-05-11T14:28:08.838Z,66.90
2019-05-11T14:30:38.839Z,68.30
2019-05-11T14:33:08.766Z,66.20
2019-05-11T14:35:38.464Z,69.10
2019-05-11T14:38:08.153Z,67.30
2019-05-11T14:40:38.755Z,66.30
2019-05-11T14:43:08.490Z,64.60
2019-05-11T14:45:38.076Z,64.30
2019-05-11T14:48:22.473Z,64.80
2019-05-11T14:50:38.637Z,64.50
2019-05-11T14:53:08.617Z,64.00
2019-05-11T14:55:38.249Z,61.50
2019-05-11T14:58:08.323Z,62.80
2019-05-11T15:00:39.165Z,62.10
2019-05-11T15:03:08.482Z,62.00
2019-05-11T15:05:39.612Z,63.60
2019-05-11T15:08:08.750Z,64.70
2019-05-11T15:10:38.406Z,62.50
2019-05-11T15:13:08.045Z,62.50
2019-05-11T15:15:39.265Z,61.90
2019-05-11T15:18:08.507Z,63.20
2019-05-11T15:20:38.698Z,60.90
2019-05-11T15:23:08.884Z,61.70
2019-05-11T15:25:38.344Z,62.40
2019-05-11T15:28:08.894Z,64.20
2019-05-11T15:30:38.216Z,62.00
2019-05-11T15:33:27.863Z,63.40
2019-05-11T15:35:58.315Z,62.90
2019-05-11T15:38:28.456Z,63.30
2019-05-11T15:40:57.997Z,65.10
2019-05-11T15:43:28.241Z,62.60
2019-05-11T15:45:57.920Z,59.50
2019-05-11T15:48:27.169Z,61.10
2019-05-11T15:50:57.786Z,60.60
2019-05-11T15:53:27.000Z,62.30
2019-05-11T15:55:59.541Z,61.80
2019-05-11T15:58:29.131Z,62.40
2019-05-11T16:00:58.792Z,62.00
2019-05-11T16:03:27.924Z,62.70
2019-05-11T16:05:58.232Z,63.20
2019-05-11T16:08:28.328Z,59.60
2019-05-11T16:10:57.807Z,61.50
2019-05-11T16:13:28.510Z,60.50
2019-05-11T16:15:57.835Z,61.80
2019-05-11T16:18:26.964Z,62.30
2019-05-11T16:20:58.165Z,61.60
2019-05-11T16:23:28.398Z,59.80
2019-05-11T16:25:58.092Z,61.40
2019-05-11T16:28:30.607Z,63.30
2019-05-11T16:30:58.355Z,63.40
2019-05-11T16:33:27.479Z,62.10
2019-05-11T16:35:58.046Z,61.60
2019-05-11T16:38:29.030Z,61.70
2019-05-11T16:40:58.523Z,62.10
2019-05-11T16:43:28.132Z,63.80
2019-05-11T16:45:57.952Z,62.80
2019-05-11T16:48:55.195Z,63.10
2019-05-11T16:51:28.493Z,64.70
2019-05-11T16:54:17.083Z,64.60
2019-05-11T16:56:48.649Z,65.00
2019-05-11T16:59:39.582Z,67.70
2019-05-11T17:02:08.345Z,67.30
2019-05-11T17:04:58.184Z,68.00
2019-05-11T17:07:29.863Z,67.90
2019-05-11T17:09:58.088Z,67.30
2019-05-11T17:12:28.663Z,69.20
2019-05-11T17:14:58.539Z,68.70
2019-05-11T17:17:28.132Z,68.60
2019-05-11T17:19:58.910Z,67.30
2019-05-11T17:22:28.334Z,66.80
2019-05-11T17:24:58.955Z,64.60
2019-05-11T17:27:28.633Z,67.30
2019-05-11T17:29:59.273Z,64.60
2019-05-11T17:32:29.406Z,66.70
2019-05-11T17:34:58.588Z,66.70
2019-05-11T17:37:28.596Z,65.10
2019-05-11T17:39:58.629Z,64.00
2019-05-11T17:42:27.883Z,63.70
2019-05-11T17:44:58.768Z,62.60
2019-05-11T17:47:28.235Z,62.40
2019-05-11T17:50:03.416Z,62.90
2019-05-11T17:52:28.318Z,62.70
2019-05-11T17:54:57.761Z,65.10
2019-05-11T17:57:27.785Z,64.50
2019-05-11T17:59:57.913Z,62.90
2019-05-11T18:02:28.827Z,62.50
2019-05-11T18:04:58.485Z,63.90
2019-05-11T18:07:30.676Z,63.60
2019-05-11T18:09:58.751Z,63.90
2019-05-11T18:12:48.667Z,64.30
2019-05-11T18:15:18.557Z,63.90
2019-05-11T18:17:48.680Z,63.70
2019-05-11T18:20:21.403Z,63.90
2019-05-11T18:22:49.281Z,63.90
2019-05-11T18:25:18.695Z,64.70
2019-05-11T18:27:48.377Z,64.10
2019-05-11T18:30:17.648Z,64.30
2019-05-11T18:32:49.019Z,65.30
2019-05-11T18:35:19.377Z,67.70
2019-05-11T18:37:48.080Z,70.20
2019-05-11T18:40:18.692Z,71.80
2019-05-11T18:42:48.825Z,71.90
2019-05-11T18:45:18.878Z,72.80
2019-05-11T18:47:48.944Z,73.70
2019-05-11T18:50:29.996Z,75.20
2019-05-11T18:52:49.303Z,78.00
2019-05-11T18:55:18.987Z,80.80
2019-05-11T18:57:48.975Z,83.20
2019-05-11T19:00:19.193Z,86.90
2019-05-11T19:02:49.366Z,90.10
2019-05-11T19:05:18.887Z,91.10
2019-05-11T19:07:48.398Z,92.60
2019-05-11T19:10:17.605Z,93.50
2019-05-11T19:12:48.778Z,94.40
2019-05-11T19:15:18.706Z,95.50
2019-05-11T19:17:49.104Z,97.00
2019-05-11T19:20:18.627Z,98.20
2019-05-11T19:22:47.774Z,99.50
2019-05-11T19:25:18.249Z,99.90
2019-05-11T19:27:50.179Z,99.90
2019-05-11T19:30:19.468Z,99.90
2019-05-11T19:32:48.930Z,99.90
2019-05-11T19:35:21.008Z,99.90
2019-05-11T19:37:48.880Z,99.90
2019-05-11T19:40:18.041Z,99.90
2019-05-11T19:42:59.061Z,99.90
2019-05-11T19:45:29.438Z,99.90
2019-05-11T19:47:58.434Z,99.90
2019-05-11T19:50:27.406Z,99.90
2019-05-11T19:52:57.998Z,99.90
2019-05-11T19:55:28.540Z,99.90
2019-05-11T19:57:57.824Z,99.90
2019-05-11T20:00:27.058Z,99.90
2019-05-11T20:02:58.381Z,99.90
2019-05-11T20:05:28.788Z,99.90
2019-05-11T20:07:58.738Z,99.90
2019-05-11T20:10:28.010Z,99.90
2019-05-11T20:12:58.752Z,99.90
2019-05-11T20:15:27.753Z,99.90
2019-05-11T20:17:58.613Z,99.90
2019-05-11T20:20:28.448Z,99.90
2019-05-11T20:22:58.495Z,99.90
2019-05-11T20:25:28.820Z,99.90
2019-05-11T20:27:58.586Z,99.90
2019-05-11T20:30:27.796Z,99.90
2019-05-11T20:32:56.783Z,99.90
2019-05-11T20:35:27.791Z,99.90
2019-05-11T20:37:58.149Z,99.90
2019-05-11T20:40:28.552Z,99.90
2019-05-11T20:42:58.713Z,99.90
2019-05-11T20:45:28.593Z,99.90
2019-05-11T20:47:57.848Z,99.90
2019-05-11T20:50:26.935Z,99.90
2019-05-11T20:52:58.054Z,99.90
2019-05-11T20:55:28.357Z,99.90
2019-05-11T20:57:58.260Z,99.90
2019-05-11T21:00:27.997Z,99.90
2019-05-11T21:02:58.799Z,99.90
2019-05-11T21:05:28.196Z,99.90
2019-05-11T21:07:57.881Z,99.90
2019-05-11T21:10:28.084Z,99.90
2019-05-11T21:12:57.878Z,99.90
2019-05-11T21:15:28.102Z,99.90
2019-05-11T21:17:58.567Z,99.90
2019-05-11T21:20:28.703Z,99.90
2019-05-11T21:22:58.155Z,99.90
2019-05-11T21:25:28.744Z,99.90
2019-05-11T21:27:58.103Z,99.90
2019-05-11T21:30:27.243Z,99.90
2019-05-11T21:32:58.140Z,99.90
2019-05-11T21:35:28.140Z,99.90
2019-05-11T21:37:58.018Z,99.90
2019-05-11T21:40:28.889Z,99.90
2019-05-11T21:42:58.124Z,99.90
2019-05-11T21:45:28.391Z,99.90
2019-05-11T21:47:58.025Z,99.90
2019-05-11T21:50:27.946Z,99.90
2019-05-11T21:52:58.974Z,99.90
2019-05-11T21:55:29.319Z,99.90
2019-05-11T21:57:58.483Z,99.90
2019-05-11T22:00:29.522Z,99.90
2019-05-11T22:02:58.860Z,99.90
2019-05-11T22:05:28.967Z,99.90
2019-05-11T22:07:58.322Z,99.90
2019-05-11T22:10:28.302Z,99.90
2019-05-11T22:12:57.534Z,99.90
2019-05-11T22:15:28.433Z,99.90
2019-05-11T22:17:58.573Z,99.90
2019-05-11T22:20:28.841Z,99.90
2019-05-11T22:22:58.367Z,99.90
2019-05-11T22:25:28.745Z,99.90
2019-05-11T22:27:58.063Z,99.90
2019-05-11T22:30:27.851Z,99.90
2019-05-11T22:32:58.385Z,99.90
2019-05-11T22:35:28.632Z,99.90
2019-05-11T22:37:57.944Z,99.90
2019-05-11T22:40:28.112Z,99.90
2019-05-11T22:42:58.422Z,99.90
2019-05-11T22:45:28.239Z,99.90
2019-05-11T22:47:58.531Z,99.90
2019-05-11T22:50:29.012Z,99.90
2019-05-11T22:52:58.394Z,99.90
2019-05-11T22:55:27.814Z,99.90
2019-05-11T22:57:57.921Z,99.90
2019-05-11T23:00:43.599Z,99.90
2019-05-11T23:03:12.733Z,99.90
2019-05-11T23:05:42.078Z,99.90
2019-05-11T23:08:11.148Z,99.90
2019-05-11T23:10:40.191Z,99.90
2019-05-11T23:13:11.224Z,99.90
2019-05-11T23:15:40.387Z,99.90
2019-05-11T23:18:09.750Z,99.90
2019-05-11T23:20:38.943Z,99.90
2019-05-11T23:23:08.800Z,99.90
2019-05-11T23:25:38.151Z,99.90
2019-05-11T23:28:07.285Z,99.90
2019-05-11T23:30:38.628Z,99.90
2019-05-11T23:33:07.926Z,99.90
2019-05-11T23:36:02.409Z,99.90
2019-05-11T23:38:31.496Z,99.90
2019-05-11T23:41:00.567Z,99.90
2019-05-11T23:43:30.041Z,99.90
2019-05-11T23:45:59.339Z,99.90
2019-05-11T23:48:28.439Z,99.90
2019-05-11T23:50:58.056Z,99.90
2019-05-11T23:53:28.268Z,99.90
2019-05-11T23:55:57.930Z,99.90
2019-05-11T23:58:28.108Z,99.90
